sensor_id;sensor_type;location;lat;lon;timestamp;P1;durP1;ratioP1;P2;durP2;ratioP2
52838;SDS011;39219;53.678;9.856;2023-04-15T00:01:04;8.73;;;4.75;;
52838;SDS011;39219;53.678;9.856;2023-04-15T00:03:30;9.85;;;5.43;;
52838;SDS011;39219;53.678;9.856;2023-04-15T00:05:58;9.20;;;4.70;;
52838;SDS011;39219;53.678;9.856;2023-04-15T00:08:26;8.43;;;4.88;;
52838;SDS011;39219;53.678;9.856;2023-04-15T00:10:54;9.35;;;5.10;;
52838;SDS011;39219;53.678;9.856;2023-04-15T00:13:20;10.00;;;5.60;;
52838;SDS011;39219;53.678;9.856;2023-04-15T00:15:46;10.00;;;5.35;;
52838;SDS011;39219;53.678;9.856;2023-04-15T00:18:13;10.70;;;5.80;;
52838;SDS011;39219;53.678;9.856;2023-04-15T00:20:39;11.98;;;5.60;;
52838;SDS011;39219;53.678;9.856;2023-04-15T00:23:06;10.68;;;5.82;;
52838;SDS011;39219;53.678;9.856;2023-04-15T00:25:34;10.88;;;5.63;;
52838;SDS011;39219;53.678;9.856;2023-04-15T00:28:00;10.95;;;6.03;;
52838;SDS011;39219;53.678;9.856;2023-04-15T00:30:27;12.25;;;6.70;;
52838;SDS011;39219;53.678;9.856;2023-04-15T00:32:54;12.43;;;6.68;;
52838;SDS011;39219;53.678;9.856;2023-04-15T00:35:20;12.13;;;6.45;;
52838;SDS011;39219;53.678;9.856;2023-04-15T00:37:48;12.48;;;6.78;;
52838;SDS011;39219;53.678;9.856;2023-04-15T00:40:14;13.23;;;6.47;;
52838;SDS011;39219;53.678;9.856;2023-04-15T00:42:45;13.02;;;7.00;;
52838;SDS011;39219;53.678;9.856;2023-04-15T00:45:11;12.80;;;7.22;;
52838;SDS011;39219;53.678;9.856;2023-04-15T00:47:38;14.38;;;7.10;;
52838;SDS011;39219;53.678;9.856;2023-04-15T00:50:07;13.20;;;6.78;;
52838;SDS011;39219;53.678;9.856;2023-04-15T00:52:34;15.35;;;7.25;;
52838;SDS011;39219;53.678;9.856;2023-04-15T00:55:01;14.88;;;7.45;;
52838;SDS011;39219;53.678;9.856;2023-04-15T00:57:28;14.88;;;6.63;;
52838;SDS011;39219;53.678;9.856;2023-04-15T00:59:57;12.60;;;6.95;;
52838;SDS011;39219;53.678;9.856;2023-04-15T01:02:23;13.98;;;7.53;;
52838;SDS011;39219;53.678;9.856;2023-04-15T01:04:50;14.50;;;7.55;;
52838;SDS011;39219;53.678;9.856;2023-04-15T01:07:16;14.85;;;7.25;;
52838;SDS011;39219;53.678;9.856;2023-04-15T01:09:43;13.65;;;7.28;;
52838;SDS011;39219;53.678;9.856;2023-04-15T01:12:11;14.38;;;7.30;;
52838;SDS011;39219;53.678;9.856;2023-04-15T01:14:39;16.38;;;7.68;;
52838;SDS011;39219;53.678;9.856;2023-04-15T01:17:07;12.30;;;6.93;;
52838;SDS011;39219;53.678;9.856;2023-04-15T01:19:35;13.57;;;7.30;;
52838;SDS011;39219;53.678;9.856;2023-04-15T01:22:01;13.52;;;6.72;;
52838;SDS011;39219;53.678;9.856;2023-04-15T01:24:29;13.13;;;7.10;;
52838;SDS011;39219;53.678;9.856;2023-04-15T01:26:58;13.07;;;7.15;;
52838;SDS011;39219;53.678;9.856;2023-04-15T01:29:24;14.57;;;7.25;;
52838;SDS011;39219;53.678;9.856;2023-04-15T01:31:52;12.48;;;6.88;;
52838;SDS011;39219;53.678;9.856;2023-04-15T01:34:20;12.30;;;6.97;;
52838;SDS011;39219;53.678;9.856;2023-04-15T01:36:46;13.32;;;7.40;;
52838;SDS011;39219;53.678;9.856;2023-04-15T01:39:13;14.10;;;6.93;;
52838;SDS011;39219;53.678;9.856;2023-04-15T01:41:39;12.75;;;6.97;;
52838;SDS011;39219;53.678;9.856;2023-04-15T01:44:08;12.98;;;6.93;;
52838;SDS011;39219;53.678;9.856;2023-04-15T01:46:35;14.05;;;6.85;;
52838;SDS011;39219;53.678;9.856;2023-04-15T01:49:02;13.35;;;6.65;;
52838;SDS011;39219;53.678;9.856;2023-04-15T01:51:28;13.48;;;6.72;;
52838;SDS011;39219;53.678;9.856;2023-04-15T01:53:55;13.18;;;6.72;;
52838;SDS011;39219;53.678;9.856;2023-04-15T01:56:21;12.50;;;6.75;;
52838;SDS011;39219;53.678;9.856;2023-04-15T01:58:49;12.75;;;6.80;;
52838;SDS011;39219;53.678;9.856;2023-04-15T02:01:17;12.75;;;7.00;;
52838;SDS011;39219;53.678;9.856;2023-04-15T02:03:44;13.85;;;6.47;;
52838;SDS011;39219;53.678;9.856;2023-04-15T02:06:11;13.07;;;7.00;;
52838;SDS011;39219;53.678;9.856;2023-04-15T02:08:38;13.93;;;7.20;;
52838;SDS011;39219;53.678;9.856;2023-04-15T02:11:05;13.40;;;6.88;;
52838;SDS011;39219;53.678;9.856;2023-04-15T02:13:31;13.68;;;7.22;;
52838;SDS011;39219;53.678;9.856;2023-04-15T02:15:58;12.70;;;6.53;;
52838;SDS011;39219;53.678;9.856;2023-04-15T02:18:25;15.00;;;7.32;;
52838;SDS011;39219;53.678;9.856;2023-04-15T02:20:52;13.57;;;7.00;;
52838;SDS011;39219;53.678;9.856;2023-04-15T02:23:19;14.10;;;7.07;;
52838;SDS011;39219;53.678;9.856;2023-04-15T02:25:46;14.02;;;7.55;;
52838;SDS011;39219;53.678;9.856;2023-04-15T02:28:12;13.60;;;7.10;;
52838;SDS011;39219;53.678;9.856;2023-04-15T02:30:38;13.48;;;6.82;;
52838;SDS011;39219;53.678;9.856;2023-04-15T02:33:05;14.25;;;7.30;;
52838;SDS011;39219;53.678;9.856;2023-04-15T02:35:33;13.20;;;7.07;;
52838;SDS011;39219;53.678;9.856;2023-04-15T02:38:03;12.18;;;6.70;;
52838;SDS011;39219;53.678;9.856;2023-04-15T02:40:29;14.20;;;7.40;;
52838;SDS011;39219;53.678;9.856;2023-04-15T02:42:56;15.25;;;7.40;;
52838;SDS011;39219;53.678;9.856;2023-04-15T02:45:22;14.65;;;7.85;;
52838;SDS011;39219;53.678;9.856;2023-04-15T02:47:51;14.75;;;7.45;;
52838;SDS011;39219;53.678;9.856;2023-04-15T02:50:18;15.52;;;7.90;;
52838;SDS011;39219;53.678;9.856;2023-04-15T02:52:46;16.88;;;8.23;;
52838;SDS011;39219;53.678;9.856;2023-04-15T02:55:12;14.63;;;7.57;;
52838;SDS011;39219;53.678;9.856;2023-04-15T02:57:39;16.23;;;8.07;;
52838;SDS011;39219;53.678;9.856;2023-04-15T03:00:06;15.60;;;7.57;;
52838;SDS011;39219;53.678;9.856;2023-04-15T03:02:35;15.65;;;7.75;;
52838;SDS011;39219;53.678;9.856;2023-04-15T03:05:02;16.27;;;8.13;;
52838;SDS011;39219;53.678;9.856;2023-04-15T03:07:29;16.58;;;8.65;;
52838;SDS011;39219;53.678;9.856;2023-04-15T03:09:57;17.27;;;8.23;;
52838;SDS011;39219;53.678;9.856;2023-04-15T03:12:24;17.48;;;8.60;;
52838;SDS011;39219;53.678;9.856;2023-04-15T03:14:50;17.30;;;8.40;;
52838;SDS011;39219;53.678;9.856;2023-04-15T03:17:17;18.17;;;8.95;;
52838;SDS011;39219;53.678;9.856;2023-04-15T03:19:43;18.42;;;8.75;;
52838;SDS011;39219;53.678;9.856;2023-04-15T03:22:10;18.02;;;9.05;;
52838;SDS011;39219;53.678;9.856;2023-04-15T03:24:36;18.35;;;9.60;;
52838;SDS011;39219;53.678;9.856;2023-04-15T03:27:04;20.27;;;10.02;;
52838;SDS011;39219;53.678;9.856;2023-04-15T03:29:32;18.95;;;9.80;;
52838;SDS011;39219;53.678;9.856;2023-04-15T03:31:58;20.23;;;9.68;;
52838;SDS011;39219;53.678;9.856;2023-04-15T03:34:25;21.08;;;10.05;;
52838;SDS011;39219;53.678;9.856;2023-04-15T03:36:51;20.88;;;10.57;;
52838;SDS011;39219;53.678;9.856;2023-04-15T03:39:18;23.10;;;10.27;;
52838;SDS011;39219;53.678;9.856;2023-04-15T03:41:44;23.67;;;11.43;;
52838;SDS011;39219;53.678;9.856;2023-04-15T03:44:12;23.55;;;10.88;;
52838;SDS011;39219;53.678;9.856;2023-04-15T03:46:38;25.77;;;11.55;;
52838;SDS011;39219;53.678;9.856;2023-04-15T03:49:05;24.55;;;11.55;;
52838;SDS011;39219;53.678;9.856;2023-04-15T03:51:32;27.05;;;12.40;;
52838;SDS011;39219;53.678;9.856;2023-04-15T03:53:58;26.52;;;12.38;;
52838;SDS011;39219;53.678;9.856;2023-04-15T03:56:26;27.13;;;12.73;;
52838;SDS011;39219;53.678;9.856;2023-04-15T03:58:52;27.10;;;12.68;;
52838;SDS011;39219;53.678;9.856;2023-04-15T04:01:20;29.27;;;13.70;;
52838;SDS011;39219;53.678;9.856;2023-04-15T04:03:46;29.83;;;13.27;;
52838;SDS011;39219;53.678;9.856;2023-04-15T04:06:13;26.00;;;12.38;;
52838;SDS011;39219;53.678;9.856;2023-04-15T04:08:40;30.27;;;13.65;;
52838;SDS011;39219;53.678;9.856;2023-04-15T04:11:07;30.15;;;14.13;;
52838;SDS011;39219;53.678;9.856;2023-04-15T04:13:33;31.88;;;13.88;;
52838;SDS011;39219;53.678;9.856;2023-04-15T04:16:00;33.20;;;14.88;;
52838;SDS011;39219;53.678;9.856;2023-04-15T04:18:27;32.03;;;14.95;;
52838;SDS011;39219;53.678;9.856;2023-04-15T04:20:54;28.27;;;13.73;;
52838;SDS011;39219;53.678;9.856;2023-04-15T04:23:20;34.83;;;15.27;;
52838;SDS011;39219;53.678;9.856;2023-04-15T04:25:47;32.15;;;14.65;;
52838;SDS011;39219;53.678;9.856;2023-04-15T04:28:13;35.67;;;15.27;;
52838;SDS011;39219;53.678;9.856;2023-04-15T04:30:40;34.80;;;15.10;;
52838;SDS011;39219;53.678;9.856;2023-04-15T04:33:07;35.50;;;16.08;;
52838;SDS011;39219;53.678;9.856;2023-04-15T04:35:34;40.40;;;15.90;;
52838;SDS011;39219;53.678;9.856;2023-04-15T04:38:01;38.65;;;16.33;;
52838;SDS011;39219;53.678;9.856;2023-04-15T04:40:28;38.67;;;16.75;;
52838;SDS011;39219;53.678;9.856;2023-04-15T04:42:55;37.53;;;16.73;;
52838;SDS011;39219;53.678;9.856;2023-04-15T04:45:21;41.50;;;17.27;;
52838;SDS011;39219;53.678;9.856;2023-04-15T04:47:48;37.95;;;16.98;;
52838;SDS011;39219;53.678;9.856;2023-04-15T04:50:14;41.50;;;18.10;;
52838;SDS011;39219;53.678;9.856;2023-04-15T04:52:42;38.28;;;17.55;;
52838;SDS011;39219;53.678;9.856;2023-04-15T04:55:09;41.30;;;17.70;;
52838;SDS011;39219;53.678;9.856;2023-04-15T04:57:35;40.67;;;18.40;;
52838;SDS011;39219;53.678;9.856;2023-04-15T05:00:03;35.83;;;17.10;;
52838;SDS011;39219;53.678;9.856;2023-04-15T05:02:32;37.38;;;17.58;;
52838;SDS011;39219;53.678;9.856;2023-04-15T05:04:59;43.33;;;18.58;;
52838;SDS011;39219;53.678;9.856;2023-04-15T05:07:25;42.08;;;18.15;;
52838;SDS011;39219;53.678;9.856;2023-04-15T05:09:53;40.60;;;18.40;;
52838;SDS011;39219;53.678;9.856;2023-04-15T05:12:20;40.15;;;18.42;;
52838;SDS011;39219;53.678;9.856;2023-04-15T05:14:46;41.05;;;19.00;;
52838;SDS011;39219;53.678;9.856;2023-04-15T05:17:12;42.47;;;18.75;;
52838;SDS011;39219;53.678;9.856;2023-04-15T05:19:39;40.83;;;18.38;;
52838;SDS011;39219;53.678;9.856;2023-04-15T05:22:05;44.40;;;19.38;;
52838;SDS011;39219;53.678;9.856;2023-04-15T05:24:32;42.22;;;19.38;;
52838;SDS011;39219;53.678;9.856;2023-04-15T05:27:00;41.65;;;18.58;;
52838;SDS011;39219;53.678;9.856;2023-04-15T05:29:28;40.78;;;18.63;;
52838;SDS011;39219;53.678;9.856;2023-04-15T05:31:54;43.70;;;19.25;;
52838;SDS011;39219;53.678;9.856;2023-04-15T05:34:21;42.70;;;19.00;;
52838;SDS011;39219;53.678;9.856;2023-04-15T05:36:47;41.85;;;18.98;;
52838;SDS011;39219;53.678;9.856;2023-04-15T05:39:14;43.42;;;19.55;;
52838;SDS011;39219;53.678;9.856;2023-04-15T05:41:40;42.33;;;18.88;;
52838;SDS011;39219;53.678;9.856;2023-04-15T05:44:08;44.90;;;19.77;;
52838;SDS011;39219;53.678;9.856;2023-04-15T05:46:35;41.92;;;18.70;;
52838;SDS011;39219;53.678;9.856;2023-04-15T05:49:01;41.53;;;19.00;;
52838;SDS011;39219;53.678;9.856;2023-04-15T05:51:28;41.10;;;18.98;;
52838;SDS011;39219;53.678;9.856;2023-04-15T05:53:55;42.78;;;19.52;;
52838;SDS011;39219;53.678;9.856;2023-04-15T05:56:21;44.22;;;19.67;;
52838;SDS011;39219;53.678;9.856;2023-04-15T05:58:48;45.33;;;20.15;;
52838;SDS011;39219;53.678;9.856;2023-04-15T06:01:16;47.13;;;20.13;;
52838;SDS011;39219;53.678;9.856;2023-04-15T06:03:43;47.30;;;20.45;;
52838;SDS011;39219;53.678;9.856;2023-04-15T06:06:09;46.70;;;20.33;;
52838;SDS011;39219;53.678;9.856;2023-04-15T06:08:36;44.97;;;20.00;;
52838;SDS011;39219;53.678;9.856;2023-04-15T06:11:02;50.58;;;21.92;;
52838;SDS011;39219;53.678;9.856;2023-04-15T06:13:30;45.72;;;21.42;;
52838;SDS011;39219;53.678;9.856;2023-04-15T06:15:56;48.85;;;21.27;;
52838;SDS011;39219;53.678;9.856;2023-04-15T06:18:24;52.30;;;22.30;;
52838;SDS011;39219;53.678;9.856;2023-04-15T06:20:50;48.22;;;22.00;;
52838;SDS011;39219;53.678;9.856;2023-04-15T06:23:17;49.15;;;22.67;;
52838;SDS011;39219;53.678;9.856;2023-04-15T06:25:43;51.85;;;22.30;;
52838;SDS011;39219;53.678;9.856;2023-04-15T06:28:10;55.20;;;24.35;;
52838;SDS011;39219;53.678;9.856;2023-04-15T06:30:36;51.35;;;22.70;;
52838;SDS011;39219;53.678;9.856;2023-04-15T06:33:04;55.78;;;23.95;;
52838;SDS011;39219;53.678;9.856;2023-04-15T06:35:32;51.85;;;23.30;;
52838;SDS011;39219;53.678;9.856;2023-04-15T06:37:59;54.53;;;23.33;;
52838;SDS011;39219;53.678;9.856;2023-04-15T06:40:25;55.67;;;23.77;;
52838;SDS011;39219;53.678;9.856;2023-04-15T06:42:52;57.20;;;24.42;;
52838;SDS011;39219;53.678;9.856;2023-04-15T06:45:18;51.83;;;22.92;;
52838;SDS011;39219;53.678;9.856;2023-04-15T06:47:45;53.90;;;24.35;;
52838;SDS011;39219;53.678;9.856;2023-04-15T06:50:11;52.65;;;24.42;;
52838;SDS011;39219;53.678;9.856;2023-04-15T06:52:40;54.47;;;23.55;;
52838;SDS011;39219;53.678;9.856;2023-04-15T06:55:06;58.00;;;25.75;;
52838;SDS011;39219;53.678;9.856;2023-04-15T06:57:34;54.50;;;24.58;;
52838;SDS011;39219;53.678;9.856;2023-04-15T07:00:00;56.03;;;24.67;;
52838;SDS011;39219;53.678;9.856;2023-04-15T07:02:29;58.97;;;25.88;;
52838;SDS011;39219;53.678;9.856;2023-04-15T07:04:56;56.88;;;25.83;;
52838;SDS011;39219;53.678;9.856;2023-04-15T07:07:22;59.80;;;25.73;;
52838;SDS011;39219;53.678;9.856;2023-04-15T07:09:51;64.03;;;26.52;;
52838;SDS011;39219;53.678;9.856;2023-04-15T07:12:17;55.13;;;25.90;;
52838;SDS011;39219;53.678;9.856;2023-04-15T07:14:44;58.85;;;25.25;;
52838;SDS011;39219;53.678;9.856;2023-04-15T07:17:11;61.70;;;27.40;;
52838;SDS011;39219;53.678;9.856;2023-04-15T07:19:37;61.10;;;26.10;;
52838;SDS011;39219;53.678;9.856;2023-04-15T07:22:04;60.22;;;26.60;;
52838;SDS011;39219;53.678;9.856;2023-04-15T07:24:30;58.13;;;26.00;;
52838;SDS011;39219;53.678;9.856;2023-04-15T07:26:58;56.20;;;26.13;;
52838;SDS011;39219;53.678;9.856;2023-04-15T07:29:25;59.60;;;26.48;;
52838;SDS011;39219;53.678;9.856;2023-04-15T07:31:52;60.55;;;26.63;;
52838;SDS011;39219;53.678;9.856;2023-04-15T07:34:18;62.38;;;28.17;;
52838;SDS011;39219;53.678;9.856;2023-04-15T07:36:45;56.53;;;27.38;;
52838;SDS011;39219;53.678;9.856;2023-04-15T07:39:14;60.72;;;26.55;;
52838;SDS011;39219;53.678;9.856;2023-04-15T07:41:41;61.42;;;28.23;;
52838;SDS011;39219;53.678;9.856;2023-04-15T07:44:09;58.35;;;27.02;;
52838;SDS011;39219;53.678;9.856;2023-04-15T07:46:35;54.53;;;26.63;;
52838;SDS011;39219;53.678;9.856;2023-04-15T07:49:02;53.13;;;27.23;;
52838;SDS011;39219;53.678;9.856;2023-04-15T07:51:28;54.67;;;27.20;;
52838;SDS011;39219;53.678;9.856;2023-04-15T07:53:56;62.03;;;28.58;;
52838;SDS011;39219;53.678;9.856;2023-04-15T07:56:22;59.17;;;28.42;;
52838;SDS011;39219;53.678;9.856;2023-04-15T07:58:50;57.65;;;27.02;;
52838;SDS011;39219;53.678;9.856;2023-04-15T08:01:18;57.03;;;27.70;;
52838;SDS011;39219;53.678;9.856;2023-04-15T08:03:45;55.45;;;27.23;;
52838;SDS011;39219;53.678;9.856;2023-04-15T08:06:12;66.45;;;28.00;;
52838;SDS011;39219;53.678;9.856;2023-04-15T08:08:38;59.25;;;28.13;;
52838;SDS011;39219;53.678;9.856;2023-04-15T08:11:05;58.63;;;28.00;;
52838;SDS011;39219;53.678;9.856;2023-04-15T08:13:32;54.58;;;26.60;;
52838;SDS011;39219;53.678;9.856;2023-04-15T08:16:16;57.80;;;27.00;;
52838;SDS011;39219;53.678;9.856;2023-04-15T08:18:45;56.38;;;27.08;;
52838;SDS011;39219;53.678;9.856;2023-04-15T08:21:11;58.20;;;27.20;;
52838;SDS011;39219;53.678;9.856;2023-04-15T08:23:38;57.55;;;27.88;;
52838;SDS011;39219;53.678;9.856;2023-04-15T08:26:04;61.40;;;27.30;;
52838;SDS011;39219;53.678;9.856;2023-04-15T08:28:31;59.75;;;27.83;;
52838;SDS011;39219;53.678;9.856;2023-04-15T08:30:58;57.42;;;28.50;;
52838;SDS011;39219;53.678;9.856;2023-04-15T08:33:26;58.30;;;27.77;;
52838;SDS011;39219;53.678;9.856;2023-04-15T08:35:52;57.08;;;26.27;;
52838;SDS011;39219;53.678;9.856;2023-04-15T08:38:19;55.88;;;25.88;;
52838;SDS011;39219;53.678;9.856;2023-04-15T08:40:45;55.47;;;27.48;;
52838;SDS011;39219;53.678;9.856;2023-04-15T08:43:14;55.35;;;26.52;;
52838;SDS011;39219;53.678;9.856;2023-04-15T08:45:46;54.55;;;26.40;;
52838;SDS011;39219;53.678;9.856;2023-04-15T08:48:15;57.95;;;26.58;;
52838;SDS011;39219;53.678;9.856;2023-04-15T08:50:44;54.85;;;26.98;;
52838;SDS011;39219;53.678;9.856;2023-04-15T08:53:11;57.35;;;28.33;;
52838;SDS011;39219;53.678;9.856;2023-04-15T08:55:41;55.22;;;26.23;;
52838;SDS011;39219;53.678;9.856;2023-04-15T08:58:09;58.15;;;27.08;;
52838;SDS011;39219;53.678;9.856;2023-04-15T09:00:37;59.47;;;27.58;;
52838;SDS011;39219;53.678;9.856;2023-04-15T09:03:05;54.88;;;26.30;;
52838;SDS011;39219;53.678;9.856;2023-04-15T09:05:33;57.85;;;27.25;;
52838;SDS011;39219;53.678;9.856;2023-04-15T09:08:02;55.35;;;26.15;;
52838;SDS011;39219;53.678;9.856;2023-04-15T09:10:29;56.67;;;26.45;;
52838;SDS011;39219;53.678;9.856;2023-04-15T09:12:57;54.00;;;26.38;;
52838;SDS011;39219;53.678;9.856;2023-04-15T09:15:24;57.22;;;27.20;;
52838;SDS011;39219;53.678;9.856;2023-04-15T09:17:51;54.53;;;26.65;;
52838;SDS011;39219;53.678;9.856;2023-04-15T09:20:18;57.85;;;27.02;;
52838;SDS011;39219;53.678;9.856;2023-04-15T09:22:45;56.65;;;26.35;;
52838;SDS011;39219;53.678;9.856;2023-04-15T09:25:28;54.17;;;26.08;;
52838;SDS011;39219;53.678;9.856;2023-04-15T09:27:56;55.15;;;26.27;;
52838;SDS011;39219;53.678;9.856;2023-04-15T09:30:24;66.18;;;30.67;;
52838;SDS011;39219;53.678;9.856;2023-04-15T09:32:52;61.15;;;30.13;;
52838;SDS011;39219;53.678;9.856;2023-04-15T09:35:19;56.42;;;27.02;;
52838;SDS011;39219;53.678;9.856;2023-04-15T09:37:47;56.15;;;26.73;;
52838;SDS011;39219;53.678;9.856;2023-04-15T09:40:14;56.00;;;26.95;;
52838;SDS011;39219;53.678;9.856;2023-04-15T09:42:58;56.00;;;27.67;;
52838;SDS011;39219;53.678;9.856;2023-04-15T09:45:26;51.50;;;25.88;;
52838;SDS011;39219;53.678;9.856;2023-04-15T09:47:52;53.05;;;24.25;;
52838;SDS011;39219;53.678;9.856;2023-04-15T09:50:19;49.35;;;24.48;;
52838;SDS011;39219;53.678;9.856;2023-04-15T09:52:46;48.25;;;24.50;;
52838;SDS011;39219;53.678;9.856;2023-04-15T09:55:13;48.75;;;24.65;;
52838;SDS011;39219;53.678;9.856;2023-04-15T09:57:42;49.60;;;24.52;;
52838;SDS011;39219;53.678;9.856;2023-04-15T10:00:09;48.35;;;24.10;;
52838;SDS011;39219;53.678;9.856;2023-04-15T10:02:36;43.22;;;22.92;;
52838;SDS011;39219;53.678;9.856;2023-04-15T10:05:05;44.95;;;22.85;;
52838;SDS011;39219;53.678;9.856;2023-04-15T10:07:32;42.20;;;22.55;;
52838;SDS011;39219;53.678;9.856;2023-04-15T10:09:59;101.75;;;41.28;;
52838;SDS011;39219;53.678;9.856;2023-04-15T10:12:26;50.90;;;29.85;;
52838;SDS011;39219;53.678;9.856;2023-04-15T10:14:57;41.15;;;23.20;;
52838;SDS011;39219;53.678;9.856;2023-04-15T10:17:26;42.20;;;22.30;;
52838;SDS011;39219;53.678;9.856;2023-04-15T10:19:53;40.53;;;22.27;;
52838;SDS011;39219;53.678;9.856;2023-04-15T10:22:21;35.85;;;21.20;;
52838;SDS011;39219;53.678;9.856;2023-04-15T10:24:48;36.10;;;20.92;;
52838;SDS011;39219;53.678;9.856;2023-04-15T10:27:16;36.65;;;20.83;;
52838;SDS011;39219;53.678;9.856;2023-04-15T10:29:43;43.72;;;21.75;;
52838;SDS011;39219;53.678;9.856;2023-04-15T10:32:11;35.72;;;20.38;;
52838;SDS011;39219;53.678;9.856;2023-04-15T10:34:38;34.53;;;19.80;;
52838;SDS011;39219;53.678;9.856;2023-04-15T10:37:08;36.13;;;20.17;;
52838;SDS011;39219;53.678;9.856;2023-04-15T10:39:38;33.88;;;19.30;;
52838;SDS011;39219;53.678;9.856;2023-04-15T10:42:07;30.98;;;18.05;;
52838;SDS011;39219;53.678;9.856;2023-04-15T10:44:35;32.33;;;18.90;;
52838;SDS011;39219;53.678;9.856;2023-04-15T10:47:09;32.78;;;18.35;;
52838;SDS011;39219;53.678;9.856;2023-04-15T10:49:45;33.25;;;18.83;;
52838;SDS011;39219;53.678;9.856;2023-04-15T10:52:13;27.73;;;16.25;;
52838;SDS011;39219;53.678;9.856;2023-04-15T10:54:41;28.48;;;17.77;;
52838;SDS011;39219;53.678;9.856;2023-04-15T10:57:08;29.83;;;17.42;;
52838;SDS011;39219;53.678;9.856;2023-04-15T11:00:00;31.95;;;17.88;;
52838;SDS011;39219;53.678;9.856;2023-04-15T11:02:38;30.30;;;17.33;;
52838;SDS011;39219;53.678;9.856;2023-04-15T11:05:07;25.52;;;16.45;;
52838;SDS011;39219;53.678;9.856;2023-04-15T11:07:34;27.65;;;16.33;;
52838;SDS011;39219;53.678;9.856;2023-04-15T11:13:20;27.20;;;15.88;;
52838;SDS011;39219;53.678;9.856;2023-04-15T11:15:53;27.33;;;15.15;;
52838;SDS011;39219;53.678;9.856;2023-04-15T11:18:24;24.85;;;15.50;;
52838;SDS011;39219;53.678;9.856;2023-04-15T11:20:54;25.23;;;15.35;;
52838;SDS011;39219;53.678;9.856;2023-04-15T11:23:26;23.52;;;14.65;;
52838;SDS011;39219;53.678;9.856;2023-04-15T11:25:55;20.30;;;13.48;;
52838;SDS011;39219;53.678;9.856;2023-04-15T11:28:23;22.00;;;13.30;;
52838;SDS011;39219;53.678;9.856;2023-04-15T11:30:51;22.95;;;14.07;;
52838;SDS011;39219;53.678;9.856;2023-04-15T11:33:19;22.65;;;13.90;;
52838;SDS011;39219;53.678;9.856;2023-04-15T11:35:46;21.23;;;13.73;;
52838;SDS011;39219;53.678;9.856;2023-04-15T11:38:14;22.40;;;13.70;;
52838;SDS011;39219;53.678;9.856;2023-04-15T11:40:42;19.58;;;12.00;;
52838;SDS011;39219;53.678;9.856;2023-04-15T11:43:09;19.67;;;12.15;;
52838;SDS011;39219;53.678;9.856;2023-04-15T11:45:37;18.13;;;11.27;;
52838;SDS011;39219;53.678;9.856;2023-04-15T11:48:12;15.73;;;10.23;;
52838;SDS011;39219;53.678;9.856;2023-04-15T11:50:39;16.10;;;9.73;;
52838;SDS011;39219;53.678;9.856;2023-04-15T11:53:07;15.77;;;9.90;;
52838;SDS011;39219;53.678;9.856;2023-04-15T11:55:42;15.35;;;9.60;;
52838;SDS011;39219;53.678;9.856;2023-04-15T11:58:11;12.90;;;8.65;;
52838;SDS011;39219;53.678;9.856;2023-04-15T12:00:40;13.85;;;8.38;;
52838;SDS011;39219;53.678;9.856;2023-04-15T12:03:18;13.55;;;8.65;;
52838;SDS011;39219;53.678;9.856;2023-04-15T12:06:07;14.25;;;8.77;;
52838;SDS011;39219;53.678;9.856;2023-04-15T12:08:49;12.20;;;8.20;;
52838;SDS011;39219;53.678;9.856;2023-04-15T12:11:28;14.10;;;7.72;;
52838;SDS011;39219;53.678;9.856;2023-04-15T12:13:56;15.60;;;7.97;;
52838;SDS011;39219;53.678;9.856;2023-04-15T12:16:27;11.98;;;7.93;;
52838;SDS011;39219;53.678;9.856;2023-04-15T12:18:55;11.73;;;8.15;;
52838;SDS011;39219;53.678;9.856;2023-04-15T12:21:23;12.35;;;8.10;;
52838;SDS011;39219;53.678;9.856;2023-04-15T12:23:51;11.80;;;7.70;;
52838;SDS011;39219;53.678;9.856;2023-04-15T12:26:24;12.82;;;7.78;;
52838;SDS011;39219;53.678;9.856;2023-04-15T12:28:53;11.95;;;7.90;;
52838;SDS011;39219;53.678;9.856;2023-04-15T12:31:21;13.85;;;8.48;;
52838;SDS011;39219;53.678;9.856;2023-04-15T12:33:48;14.43;;;7.68;;
52838;SDS011;39219;53.678;9.856;2023-04-15T12:36:15;15.45;;;8.23;;
52838;SDS011;39219;53.678;9.856;2023-04-15T12:38:41;12.57;;;8.25;;
52838;SDS011;39219;53.678;9.856;2023-04-15T12:41:08;13.25;;;8.00;;
52838;SDS011;39219;53.678;9.856;2023-04-15T12:43:34;12.80;;;8.48;;
52838;SDS011;39219;53.678;9.856;2023-04-15T12:46:02;14.38;;;8.63;;
52838;SDS011;39219;53.678;9.856;2023-04-15T12:48:30;15.23;;;9.32;;
52838;SDS011;39219;53.678;9.856;2023-04-15T12:50:57;14.30;;;9.27;;
52838;SDS011;39219;53.678;9.856;2023-04-15T12:53:23;14.95;;;9.32;;
52838;SDS011;39219;53.678;9.856;2023-04-15T12:55:50;14.82;;;9.70;;
52838;SDS011;39219;53.678;9.856;2023-04-15T12:58:16;14.15;;;9.20;;
52838;SDS011;39219;53.678;9.856;2023-04-15T13:00:43;14.93;;;9.40;;
52838;SDS011;39219;53.678;9.856;2023-04-15T13:03:11;14.25;;;9.25;;
52838;SDS011;39219;53.678;9.856;2023-04-15T13:05:37;16.55;;;9.82;;
52838;SDS011;39219;53.678;9.856;2023-04-15T13:08:04;16.25;;;9.82;;
52838;SDS011;39219;53.678;9.856;2023-04-15T13:10:31;14.77;;;9.60;;
52838;SDS011;39219;53.678;9.856;2023-04-15T13:12:57;14.48;;;9.25;;
52838;SDS011;39219;53.678;9.856;2023-04-15T13:15:24;15.20;;;9.68;;
52838;SDS011;39219;53.678;9.856;2023-04-15T13:17:50;14.18;;;9.43;;
52838;SDS011;39219;53.678;9.856;2023-04-15T13:20:18;14.20;;;8.82;;
52838;SDS011;39219;53.678;9.856;2023-04-15T13:22:44;15.40;;;9.60;;
52838;SDS011;39219;53.678;9.856;2023-04-15T13:25:11;15.13;;;9.32;;
52838;SDS011;39219;53.678;9.856;2023-04-15T13:27:37;14.70;;;9.60;;
52838;SDS011;39219;53.678;9.856;2023-04-15T13:30:04;13.93;;;9.38;;
52838;SDS011;39219;53.678;9.856;2023-04-15T13:32:32;14.02;;;9.15;;
52838;SDS011;39219;53.678;9.856;2023-04-15T13:34:58;14.52;;;9.43;;
52838;SDS011;39219;53.678;9.856;2023-04-15T13:37:27;14.25;;;9.32;;
52838;SDS011;39219;53.678;9.856;2023-04-15T13:39:53;14.25;;;9.48;;
52838;SDS011;39219;53.678;9.856;2023-04-15T13:42:20;14.20;;;9.05;;
52838;SDS011;39219;53.678;9.856;2023-04-15T13:44:48;13.30;;;9.00;;
52838;SDS011;39219;53.678;9.856;2023-04-15T13:47:14;15.20;;;9.43;;
52838;SDS011;39219;53.678;9.856;2023-04-15T13:49:41;14.00;;;9.10;;
52838;SDS011;39219;53.678;9.856;2023-04-15T13:52:08;13.73;;;8.63;;
52838;SDS011;39219;53.678;9.856;2023-04-15T13:54:36;15.27;;;8.93;;
52838;SDS011;39219;53.678;9.856;2023-04-15T13:57:03;12.98;;;8.50;;
52838;SDS011;39219;53.678;9.856;2023-04-15T13:59:30;14.85;;;8.98;;
52838;SDS011;39219;53.678;9.856;2023-04-15T14:01:57;12.88;;;8.75;;
52838;SDS011;39219;53.678;9.856;2023-04-15T14:04:24;12.75;;;9.23;;
52838;SDS011;39219;53.678;9.856;2023-04-15T14:06:50;14.55;;;9.63;;
52838;SDS011;39219;53.678;9.856;2023-04-15T14:09:17;14.70;;;9.05;;
52838;SDS011;39219;53.678;9.856;2023-04-15T14:11:47;16.83;;;9.07;;
52838;SDS011;39219;53.678;9.856;2023-04-15T14:14:14;14.05;;;9.55;;
52838;SDS011;39219;53.678;9.856;2023-04-15T14:16:40;15.98;;;9.55;;
52838;SDS011;39219;53.678;9.856;2023-04-15T14:19:07;13.95;;;9.48;;
52838;SDS011;39219;53.678;9.856;2023-04-15T14:21:33;13.23;;;8.95;;
52838;SDS011;39219;53.678;9.856;2023-04-15T14:24:00;13.57;;;8.60;;
52838;SDS011;39219;53.678;9.856;2023-04-15T14:26:26;13.27;;;8.93;;
52838;SDS011;39219;53.678;9.856;2023-04-15T14:28:54;13.10;;;8.73;;
52838;SDS011;39219;53.678;9.856;2023-04-15T14:31:20;14.38;;;9.65;;
52838;SDS011;39219;53.678;9.856;2023-04-15T14:33:47;13.73;;;8.90;;